Friday, April 18, 2014
10:38 UTC
  |  Log In   |  Register Free
Airport Search:

Clinton-Sampson County Airport
(KCTZ)

Clinton-Sampson County Airport Diagram
No Airport Diagram Available

FAA data valid effective April 3, 2014 until May 29, 2014 (unless otherwise noted).

 
 
 
 
 
 
 
 
 
 
 
 
 
 

Current Aviation Weather for Clinton-Sampson County Airport (KCTZ)

The most recent METAR observation for KCTZ was updated at: 0935 UTC
METAR Summary (Translated METAR)
KCTZ
180935Z AUTO 03005KT 10SM CLR 06/04 A3040 RMK AO2 T00600044
KDPL
(18.9 nm NE from KCTZ)
180935Z AUTO 01005KT 7SM SCT008 SCT055 05/04 A3040 RMK AO2 T00480037
TAF
No TAF information found within 50 nm of KCTZ
  Airport Weather Conditions for KCTZ

 Current Weather at CTZ
43° F
Fair
Northeast winds at 5.8 mph
CTZ NOAA Radar

Pressure: 30.40 in
Humidity: 90%
Wind: Northeast at 5.8 MPH (5 KT)
Dew Point: 39.9°F
Visibility: 10.00 mi


Airport Weather Forecast for KCTZ

Translated METAR and TAF for KCTZ
Translated METAR for KCTZ (1038 UTC 18 April 2014)
found at http://aviationweather.gov/adds/metars/
 
METAR text: KCTZ 181015Z AUTO 03004KT 10SM BKN055 06/05 A3040 RMK AO2 T00590045
Conditions at: KCTZ (CLINTON , NC, US) observed 1015 UTC 18 April 2014
Temperature: 5.9°C (43°F)
Dewpoint: 4.5°C (40°F) [RH = 91%]
Pressure (altimeter): 30.40 inches Hg (1029.5 mb)
Winds: from the NNE (30 degrees) at 5 MPH (4 knots; 2.1 m/s)
Visibility: 10 or more miles (16+ km)
Ceiling: 5500 feet AGL
Clouds: broken clouds at 5500 feet AGL
Weather: automated observation with no human augmentation;
there may or may not be significant weather present at this time
Translated TAF for KCTZ

There is no translated TAF available for this airport

Find All Airport Services Find A Hotel Find A Rental Car Find A Golf Course Find A Restaurant $100 Hamburger



FBO's on the Field
FBO Company Facility Photos Services Transportation Aviation Fuel Prices: Prices include tax
Catering Weather Repair Courtesy Rental Type 100LL JetA JetA+ MOGAS 8087
 
Clinton Flying Service

This FBO has not yet been rated
FS:Shell
Last Updated: Mar-12
Login to update fuel prices
SS:
Contact Clinton Flying ServiceMore FBO Information
 
Add another FBO Facility Photos Catering Weather Repair Courtesy Rental Type 100LL JetA JetA+ MOGAS 8087
Services Transportation Aviation Fuel Prices: Prices include tax


GlobalAir.com Airport Resource Center model-print
model-print
model-print
model-print